Corbin City, New Jersey
Current Conditions -  °F | °C
As of 8:27 AM on Thursday 30 Oct 2014 (Local Time) from KMIV Reporting Station
Haze Haze  
Wind Chill:   Ceiling: 7000
Heat Index:   Visibility: 6mi
Dew Point:   Wind: 5mph
Humidity: 97%   Direction: 290°WNW
Pressure: 30.02"   Gusts: NA
Location:  39.2589°N, 74.8124°W
Report Text: KMIV 301227Z AUTO 29004KT 6SM BR SCT001 BKN070 07/07 A3002 RMK AO2 T00720067
Loading
Personal Weather Stations






























Interactive Weather Map
Tropical Storm Tracking
New forecast layout! Learn more

10-Day Weather Forecast

Advertisements
Track Severe Weather on mobile